Jackson, KY

9:18 PM EDT on April 19, 2015 (GMT -0400)
Carroll | | Change Station
CLOSE
Current Station
Airport
Location: Jackson,
Elevation: 1381 ft
Nearby Weather Stations

Elev 1381 ft 37.59 °N, 83.31 °W | Updated 25 minutes ago

Mostly Cloudy
Mostly Cloudy
68 °F
Feels Like 68 °F
N
5
Wind Variable Wind from Variable

Today
High -- | Low -- °F
--% Chance of Precip.
Yesterday
High -- | Low -- °F
Precip. -- in
6:53 AM 8:12 PM
New Moon, 2% visible
Pressure 29.56 in
Visibility 10.0 miles
Clouds Clear
Dew Point 58 °F
Humidity 70%
Rainfall 0.20 in
Snow Depth Not available.
UV 0 out of 12
Pollen 3.30 out of 12
Air Quality Not available.
Flu Activity Local Activity
METAR KJKL 200053Z AUTO VRB04KT 10SM CLR 20/14 A2959 RMK AO2 SLP008 T02000144 $

More Conditions Fewer Conditions

Pressure 29.56 in
Visibility 10.0 miles
Clouds Clear
Dew Point 58 °F
Humidity 70%
Rainfall 0.20 in
Snow Depth Not available.
UV 0 out of 12
Pollen 3.30 out of 12
Air Quality Not available.
Flu Activity Local Activity
METAR KJKL 200053Z AUTO VRB04KT 10SM CLR 20/14 A2959 RMK AO2 SLP008 T02000144 $

More Conditions Fewer Conditions

10-Day Weather Forecast

Almanac

Astronomy

Apr. 19, 2015 Rise Set
Actual Time
Civil Twilight
Nautical Twilight
Astronomical Twilight
Moon
Length of Visible Light
Length of Day
Tomorrow will be .
, % of the Moon is Illuminated

Today's Extremes

State Highs State Lows

Community

WunderPhotos

Upload Photos

1,815,080 photos uploaded!

WunderBlogs® & News

Nearby

Air Quality

  Air Quality AQ Index Pollutant
Not available.

Snow Depth

Station Depth Elevation

Earthquake Activity

City Distance Mag. Time & Date
Minimum magnitude displayed is 2.5.

Coastal Water Temperatures

Place Temperature

Stations

Nearby Weather Stations

Station Location Temp. Windchill Dew Point Humidity Wind Precip. Elev Updated Type